WetterOnline ( https://www.wetteronline.de )

Wetter aktuell Mühldorf

Aktuelles Wetter: Mühldorf am Inn (410m)

6-stündlich | Neueste Meldungen
Ortszeit Temperatur Wetter
Do, 30.06. 20:00 23.5° C wolkig
Do, 30.06. 14:00 27.0° C wolkenlos
Do, 30.06. 8:00 18.0° C wolkig
Do, 30.06. 2:00 17.1° C Nebel
Mi, 29.06. 20:00 21.3° C bewölkt
Mi, 29.06. 14:00 22.2° C wolkig
Mi, 29.06. 8:00 18.0° C wolkig
Mi, 29.06. 2:00 16.9° C wolkig
Ortszeit Temperatur Wetter
Do, 30.06. 21:00 22.6° C bedeckt
Do, 30.06. 20:50 22.6° C bedeckt
Do, 30.06. 20:40 22.7° C bedeckt
Do, 30.06. 20:30 22.3° C bedeckt
Do, 30.06. 20:20 22.3° C bedeckt
Do, 30.06. 20:10 22.6° C bedeckt
Do, 30.06. 20:00 23.5° C wolkig
Do, 30.06. 19:30 25.0° C wolkig
Do, 30.06. 19:00 26.0° C wolkig
Do, 30.06. 18:30 26.8° C wolkenlos
Do, 30.06. 18:00 28.1° C wolkenlos
Ortszeit Relative Feuchte Sichtweite
Do, 30.06. 20:00 76% 45 km
Do, 30.06. 14:00 56% 45 km
Do, 30.06. 8:00 90% 25 km
Do, 30.06. 2:00 99% 6 km
Mi, 29.06. 20:00 80% 35 km
Mi, 29.06. 14:00 70% 55 km
Mi, 29.06. 8:00 96% 8 km
Mi, 29.06. 2:00 97% 9 km
Ortszeit Relative Feuchte Sichtweite
Do, 30.06. 21:00 81% 30 km
Do, 30.06. 20:50 81% -
Do, 30.06. 20:40 80% -
Do, 30.06. 20:30 85% 35 km
Do, 30.06. 20:20 85% -
Do, 30.06. 20:10 83% -
Do, 30.06. 20:00 76% 45 km
Do, 30.06. 19:30 69% 45 km
Do, 30.06. 19:00 61% 50 km
Do, 30.06. 18:30 55% 50 km
Do, 30.06. 18:00 50% >70 km
Ortszeit Niederschlagsmenge Niederschlagsart
Do, 30.06. 20:00 0.0 l/m2 in 12 Std. -
Do, 30.06. 14:00 0.0 l/m2 in 6 Std. -
Do, 30.06. 8:00 0.0 l/m2 in 12 Std. -
Do, 30.06. 2:00 0.0 l/m2 in 6 Std. -
Mi, 29.06. 20:00 0.1 l/m2 in 12 Std. Regen
Mi, 29.06. 14:00 0.1 l/m2 in 6 Std. Regen
Mi, 29.06. 8:00 0.1 l/m2 in 12 Std. Regen
Mi, 29.06. 2:00 0.1 l/m2 in 6 Std. Regen
Ortszeit Niederschlagsmenge Niederschlagsart
Do, 30.06. 21:00 0.0 l/m2 in 1 Std. -
Do, 30.06. 20:50 keine Meldung -
Do, 30.06. 20:40 keine Meldung -
Do, 30.06. 20:30 0.0 l/m2 in 1 Std. -
Do, 30.06. 20:20 keine Meldung -
Do, 30.06. 20:10 keine Meldung -
Do, 30.06. 20:00 0.0 l/m2 in 1 Std. -
Do, 30.06. 19:30 0.0 l/m2 in 1 Std. -
Do, 30.06. 19:00 0.0 l/m2 in 1 Std. -
Do, 30.06. 18:30 0.0 l/m2 in 1 Std. -
Do, 30.06. 18:00 0.0 l/m2 in 1 Std. -
Ortszeit Stärke Spitze Richtung
km/h Bft. km/h Grad Sektor
Do, 30.06. 20:00 4 1 22 140° SO
Do, 30.06. 14:00 9 2 20 90° O
Do, 30.06. 8:00 4 1 14 110° O
Do, 30.06. 2:00 4 1 14 110° O
Mi, 29.06. 20:00 4 1 18 150° SO
Mi, 29.06. 14:00 4 1 14 200° S
Mi, 29.06. 8:00 11 2 15 60° NO
Mi, 29.06. 2:00 4 1 18 160° S
Ortszeit Stärke Spitze Richtung
km/h Bft. km/h Grad Sektor
Do, 30.06. 21:00 4 1 14 300° NW
Do, 30.06. 20:50 4 1 - 300° NW
Do, 30.06. 20:40 7 2 - 290° W
Do, 30.06. 20:30 7 2 11 280° W
Do, 30.06. 20:20 7 2 - 280° W
Do, 30.06. 20:10 4 1 - 320° NW
Do, 30.06. 20:00 4 1 11 140° SO
Do, 30.06. 19:30 4 1 11 60° NO
Do, 30.06. 19:00 7 2 19 40° NO
Do, 30.06. 18:30 7 2 18 90° O
Do, 30.06. 18:00 11 2 22 110° O
Ortszeit Untergrenze Bedeckung Gattung
total tief tief mittel hoch
Do, 30.06. 20:00 7200 m 8/8 0/8 - - -
Do, 30.06. 14:00 - 0/8 0/8 - - -
Do, 30.06. 8:00 120 m 6/8 6/8 - - -
Do, 30.06. 2:00 9000 m 1/8 0/8 - - -
Mi, 29.06. 20:00 3000 m 7/8 7/8 - - -
Mi, 29.06. 14:00 690 m 8/8 1/8 - - -
Mi, 29.06. 8:00 60 m 8/8 1/8 - - -
Mi, 29.06. 2:00 210 m 7/8 4/8 - - -
Ortszeit Bedeckungsgrad in Achtel und Wolkenuntergrenze
Do, 30.06. 21:00 5(3600m) 8(4500m) 8(5100m)
Do, 30.06. 20:50 5(3600m) 8(4500m) 8(5100m)
Do, 30.06. 20:40 8
Do, 30.06. 20:30 5(3600m) 8(6600m)
Do, 30.06. 20:20 5(3600m) 8(6600m)
Do, 30.06. 20:10 8
Do, 30.06. 20:00 5(7200m) 8(8400m)
Do, 30.06. 19:30 8(9000m)
Do, 30.06. 19:00 6(9000m) 8(9000m)
Do, 30.06. 18:30 keine Wolken
Do, 30.06. 18:00 keine Wolken
Ortszeit Luftdruck NN (hPa) Tendenz (hPa in 3 Std.)
Do, 30.06. 20:00 1009 0,0
Do, 30.06. 14:00 1010 - 1,0
Do, 30.06. 8:00 1014 + 0,3
Do, 30.06. 2:00 1014 + 0,1
Mi, 29.06. 20:00 1012 - 1,0
Mi, 29.06. 14:00 1014 0,0
Mi, 29.06. 8:00 1013 - 0,7
Mi, 29.06. 2:00 1016 - 0,8
Ortszeit Luftdruck NN (hPa) Tendenz (hPa in 3 Std.)
Do, 30.06. 21:00 1010 + 0,9
Do, 30.06. 20:50 1010 keine Meldung
Do, 30.06. 20:40 1010 keine Meldung
Do, 30.06. 20:30 1010 + 0,8
Do, 30.06. 20:20 1010 keine Meldung
Do, 30.06. 20:10 1010 keine Meldung
Do, 30.06. 20:00 1009 0,0
Do, 30.06. 19:30 1009 - 0,7
Do, 30.06. 19:00 1009 - 0,7
Do, 30.06. 18:30 1009 - 1,0
Do, 30.06. 18:00 1008 - 1,1
Ortszeit Schneehöhe (cm)
Do, 30.06. 20:00 0
Do, 30.06. 14:00 0
Do, 30.06. 8:00 0
Do, 30.06. 2:00 0
Mi, 29.06. 20:00 0
Mi, 29.06. 14:00 0
Mi, 29.06. 8:00 0
Mi, 29.06. 2:00 0
Ortszeit Schneehöhe (cm)
Do, 30.06. 21:00 0
Do, 30.06. 20:50 0
Do, 30.06. 20:40 0
Do, 30.06. 20:30 0
Do, 30.06. 20:20 0
Do, 30.06. 20:10 0
Do, 30.06. 20:00 0
Do, 30.06. 19:30 0
Do, 30.06. 19:00 0
Do, 30.06. 18:30 0
Do, 30.06. 18:00 0
Link zu dieser Seite / Seite empfehlen

Das Wetter in ...